sensor_id;sensor_type;location;lat;lon;timestamp;P1;durP1;ratioP1;P2;durP2;ratioP2
11171;SDS011;5642;50.830;12.082;2023-06-14T00:00:37;1.60;;;1.50;;
11171;SDS011;5642;50.830;12.082;2023-06-14T00:03:07;1.48;;;1.38;;
11171;SDS011;5642;50.830;12.082;2023-06-14T00:05:37;1.40;;;1.30;;
11171;SDS011;5642;50.830;12.082;2023-06-14T00:08:07;1.60;;;1.50;;
11171;SDS011;5642;50.830;12.082;2023-06-14T00:10:34;1.10;;;1.10;;
11171;SDS011;5642;50.830;12.082;2023-06-14T00:13:01;1.40;;;1.30;;
11171;SDS011;5642;50.830;12.082;2023-06-14T00:15:28;1.17;;;1.13;;
11171;SDS011;5642;50.830;12.082;2023-06-14T00:17:56;4.00;;;1.50;;
11171;SDS011;5642;50.830;12.082;2023-06-14T00:20:26;1.33;;;1.23;;
11171;SDS011;5642;50.830;12.082;2023-06-14T00:22:56;1.42;;;1.33;;
11171;SDS011;5642;50.830;12.082;2023-06-14T00:25:23;1.48;;;1.38;;
11171;SDS011;5642;50.830;12.082;2023-06-14T00:27:56;1.27;;;1.20;;
11171;SDS011;5642;50.830;12.082;2023-06-14T00:30:23;1.50;;;1.40;;
11171;SDS011;5642;50.830;12.082;2023-06-14T00:32:50;2.05;;;1.40;;
11171;SDS011;5642;50.830;12.082;2023-06-14T00:35:17;1.27;;;1.23;;
11171;SDS011;5642;50.830;12.082;2023-06-14T00:37:43;2.67;;;1.30;;
11171;SDS011;5642;50.830;12.082;2023-06-14T00:40:09;2.03;;;1.50;;
11171;SDS011;5642;50.830;12.082;2023-06-14T00:42:36;1.40;;;1.30;;
11171;SDS011;5642;50.830;12.082;2023-06-14T00:45:02;1.55;;;1.45;;
11171;SDS011;5642;50.830;12.082;2023-06-14T00:47:28;1.42;;;1.33;;
11171;SDS011;5642;50.830;12.082;2023-06-14T00:49:54;1.40;;;1.30;;
11171;SDS011;5642;50.830;12.082;2023-06-14T00:52:23;1.40;;;1.30;;
11171;SDS011;5642;50.830;12.082;2023-06-14T00:54:50;2.22;;;1.48;;
11171;SDS011;5642;50.830;12.082;2023-06-14T00:57:16;1.23;;;1.13;;
11171;SDS011;5642;50.830;12.082;2023-06-14T00:59:46;1.50;;;1.40;;
11171;SDS011;5642;50.830;12.082;2023-06-14T01:02:14;1.40;;;1.30;;
11171;SDS011;5642;50.830;12.082;2023-06-14T01:04:41;1.13;;;1.13;;
11171;SDS011;5642;50.830;12.082;2023-06-14T01:15:21;2.38;;;1.40;;
11171;SDS011;5642;50.830;12.082;2023-06-14T01:17:49;1.30;;;1.20;;
11171;SDS011;5642;50.830;12.082;2023-06-14T01:20:19;1.92;;;1.20;;
11171;SDS011;5642;50.830;12.082;2023-06-14T01:22:55;1.55;;;1.40;;
11171;SDS011;5642;50.830;12.082;2023-06-14T01:25:22;1.58;;;1.40;;
11171;SDS011;5642;50.830;12.082;2023-06-14T01:27:50;1.38;;;1.27;;
11171;SDS011;5642;50.830;12.082;2023-06-14T01:30:20;1.48;;;1.38;;
11171;SDS011;5642;50.830;12.082;2023-06-14T01:32:51;1.52;;;1.42;;
11171;SDS011;5642;50.830;12.082;2023-06-14T01:35:18;2.47;;;1.38;;
11171;SDS011;5642;50.830;12.082;2023-06-14T01:37:46;1.40;;;1.30;;
11171;SDS011;5642;50.830;12.082;2023-06-14T01:40:14;1.65;;;1.25;;
11171;SDS011;5642;50.830;12.082;2023-06-14T01:42:41;1.33;;;1.23;;
11171;SDS011;5642;50.830;12.082;2023-06-14T01:45:10;1.15;;;1.15;;
11171;SDS011;5642;50.830;12.082;2023-06-14T01:47:38;1.52;;;1.30;;
11171;SDS011;5642;50.830;12.082;2023-06-14T01:50:04;1.40;;;1.30;;
11171;SDS011;5642;50.830;12.082;2023-06-14T01:52:31;1.45;;;1.20;;
11171;SDS011;5642;50.830;12.082;2023-06-14T01:54:57;1.30;;;1.20;;
11171;SDS011;5642;50.830;12.082;2023-06-14T01:57:24;1.20;;;1.10;;
11171;SDS011;5642;50.830;12.082;2023-06-14T01:59:54;1.73;;;1.52;;
11171;SDS011;5642;50.830;12.082;2023-06-14T02:02:20;1.30;;;1.20;;
11171;SDS011;5642;50.830;12.082;2023-06-14T02:04:46;1.77;;;1.20;;
11171;SDS011;5642;50.830;12.082;2023-06-14T02:07:13;1.25;;;1.20;;
11171;SDS011;5642;50.830;12.082;2023-06-14T02:09:42;1.48;;;1.38;;
11171;SDS011;5642;50.830;12.082;2023-06-14T02:12:08;1.10;;;1.10;;
11171;SDS011;5642;50.830;12.082;2023-06-14T02:14:37;1.42;;;1.33;;
11171;SDS011;5642;50.830;12.082;2023-06-14T02:17:03;1.42;;;1.30;;
11171;SDS011;5642;50.830;12.082;2023-06-14T02:19:30;1.40;;;1.30;;
11171;SDS011;5642;50.830;12.082;2023-06-14T02:21:56;2.30;;;1.33;;
11171;SDS011;5642;50.830;12.082;2023-06-14T02:24:22;2.65;;;1.30;;
11171;SDS011;5642;50.830;12.082;2023-06-14T02:26:49;1.38;;;1.27;;
11171;SDS011;5642;50.830;12.082;2023-06-14T02:29:16;1.40;;;1.30;;
11171;SDS011;5642;50.830;12.082;2023-06-14T02:31:42;1.60;;;1.50;;
11171;SDS011;5642;50.830;12.082;2023-06-14T02:34:08;1.67;;;1.58;;
11171;SDS011;5642;50.830;12.082;2023-06-14T02:36:34;1.38;;;1.27;;
11171;SDS011;5642;50.830;12.082;2023-06-14T02:39:01;1.38;;;1.27;;
11171;SDS011;5642;50.830;12.082;2023-06-14T02:41:27;1.38;;;1.30;;
11171;SDS011;5642;50.830;12.082;2023-06-14T02:43:53;1.42;;;1.33;;
11171;SDS011;5642;50.830;12.082;2023-06-14T02:46:20;1.80;;;1.30;;
11171;SDS011;5642;50.830;12.082;2023-06-14T02:48:46;1.48;;;1.38;;
11171;SDS011;5642;50.830;12.082;2023-06-14T02:51:11;1.48;;;1.38;;
11171;SDS011;5642;50.830;12.082;2023-06-14T02:53:38;1.83;;;1.40;;
11171;SDS011;5642;50.830;12.082;2023-06-14T02:56:04;1.52;;;1.42;;
11171;SDS011;5642;50.830;12.082;2023-06-14T02:58:30;1.30;;;1.20;;
11171;SDS011;5642;50.830;12.082;2023-06-14T03:00:56;1.38;;;1.27;;
11171;SDS011;5642;50.830;12.082;2023-06-14T03:03:22;1.33;;;1.23;;
11171;SDS011;5642;50.830;12.082;2023-06-14T03:05:50;1.40;;;1.30;;
11171;SDS011;5642;50.830;12.082;2023-06-14T03:08:16;2.17;;;1.35;;
11171;SDS011;5642;50.830;12.082;2023-06-14T03:10:48;1.60;;;1.50;;
11171;SDS011;5642;50.830;12.082;2023-06-14T03:13:15;1.33;;;1.23;;
11171;SDS011;5642;50.830;12.082;2023-06-14T03:15:42;1.83;;;1.30;;
11171;SDS011;5642;50.830;12.082;2023-06-14T03:18:10;1.40;;;1.30;;
11171;SDS011;5642;50.830;12.082;2023-06-14T03:20:38;1.30;;;1.30;;
11171;SDS011;5642;50.830;12.082;2023-06-14T03:23:05;2.13;;;1.35;;
11171;SDS011;5642;50.830;12.082;2023-06-14T03:25:32;1.50;;;1.40;;
11171;SDS011;5642;50.830;12.082;2023-06-14T03:28:04;1.45;;;1.33;;
11171;SDS011;5642;50.830;12.082;2023-06-14T03:30:33;1.48;;;1.35;;
11171;SDS011;5642;50.830;12.082;2023-06-14T03:32:59;1.40;;;1.30;;
11171;SDS011;5642;50.830;12.082;2023-06-14T03:35:28;1.58;;;1.48;;
11171;SDS011;5642;50.830;12.082;2023-06-14T03:37:54;1.38;;;1.27;;
11171;SDS011;5642;50.830;12.082;2023-06-14T03:40:21;1.50;;;1.40;;
11171;SDS011;5642;50.830;12.082;2023-06-14T03:42:47;1.70;;;1.27;;
11171;SDS011;5642;50.830;12.082;2023-06-14T03:45:13;1.50;;;1.40;;
11171;SDS011;5642;50.830;12.082;2023-06-14T03:47:40;2.05;;;1.40;;
11171;SDS011;5642;50.830;12.082;2023-06-14T03:50:06;1.55;;;1.45;;
11171;SDS011;5642;50.830;12.082;2023-06-14T03:52:36;2.17;;;1.55;;
11171;SDS011;5642;50.830;12.082;2023-06-14T03:55:02;1.42;;;1.33;;
11171;SDS011;5642;50.830;12.082;2023-06-14T03:57:29;1.40;;;1.30;;
11171;SDS011;5642;50.830;12.082;2023-06-14T03:59:56;1.50;;;1.27;;
11171;SDS011;5642;50.830;12.082;2023-06-14T04:02:22;1.30;;;1.20;;
11171;SDS011;5642;50.830;12.082;2023-06-14T04:04:48;1.40;;;1.30;;
11171;SDS011;5642;50.830;12.082;2023-06-14T04:07:19;1.50;;;1.40;;
11171;SDS011;5642;50.830;12.082;2023-06-14T04:09:46;1.40;;;1.30;;
11171;SDS011;5642;50.830;12.082;2023-06-14T04:12:12;1.40;;;1.30;;
11171;SDS011;5642;50.830;12.082;2023-06-14T04:14:41;1.50;;;1.30;;
11171;SDS011;5642;50.830;12.082;2023-06-14T04:17:08;2.75;;;1.48;;
11171;SDS011;5642;50.830;12.082;2023-06-14T04:19:34;1.30;;;1.20;;
11171;SDS011;5642;50.830;12.082;2023-06-14T04:22:00;1.50;;;1.30;;
11171;SDS011;5642;50.830;12.082;2023-06-14T04:24:28;1.50;;;1.40;;
11171;SDS011;5642;50.830;12.082;2023-06-14T04:26:58;1.10;;;1.10;;
11171;SDS011;5642;50.830;12.082;2023-06-14T04:29:26;1.25;;;1.17;;
11171;SDS011;5642;50.830;12.082;2023-06-14T04:31:55;2.05;;;1.27;;
11171;SDS011;5642;50.830;12.082;2023-06-14T04:34:27;1.30;;;1.20;;
11171;SDS011;5642;50.830;12.082;2023-06-14T04:36:58;1.50;;;1.40;;
11171;SDS011;5642;50.830;12.082;2023-06-14T04:39:25;1.48;;;1.38;;
11171;SDS011;5642;50.830;12.082;2023-06-14T04:41:53;1.83;;;1.38;;
11171;SDS011;5642;50.830;12.082;2023-06-14T04:44:25;1.20;;;1.10;;
11171;SDS011;5642;50.830;12.082;2023-06-14T04:46:56;1.15;;;1.10;;
11171;SDS011;5642;50.830;12.082;2023-06-14T04:49:24;1.27;;;1.20;;
11171;SDS011;5642;50.830;12.082;2023-06-14T04:51:52;1.10;;;1.10;;
11171;SDS011;5642;50.830;12.082;2023-06-14T04:54:23;1.42;;;1.30;;
11171;SDS011;5642;50.830;12.082;2023-06-14T04:56:52;1.10;;;1.10;;
11171;SDS011;5642;50.830;12.082;2023-06-14T04:59:21;1.45;;;0.90;;
11171;SDS011;5642;50.830;12.082;2023-06-14T05:01:50;1.00;;;1.00;;
11171;SDS011;5642;50.830;12.082;2023-06-14T05:04:17;2.60;;;1.27;;
11171;SDS011;5642;50.830;12.082;2023-06-14T05:06:44;0.90;;;0.90;;
11171;SDS011;5642;50.830;12.082;2023-06-14T05:09:13;1.00;;;1.00;;
11171;SDS011;5642;50.830;12.082;2023-06-14T05:11:40;0.80;;;0.80;;
11171;SDS011;5642;50.830;12.082;2023-06-14T05:14:08;0.95;;;0.95;;
11171;SDS011;5642;50.830;12.082;2023-06-14T05:16:34;1.00;;;1.00;;
11171;SDS011;5642;50.830;12.082;2023-06-14T05:19:00;1.10;;;1.08;;
11171;SDS011;5642;50.830;12.082;2023-06-14T05:21:27;1.20;;;1.10;;
11171;SDS011;5642;50.830;12.082;2023-06-14T05:23:53;1.58;;;1.00;;
11171;SDS011;5642;50.830;12.082;2023-06-14T05:26:19;0.93;;;0.73;;
11171;SDS011;5642;50.830;12.082;2023-06-14T05:28:46;1.00;;;1.00;;
11171;SDS011;5642;50.830;12.082;2023-06-14T05:31:12;1.05;;;0.95;;
11171;SDS011;5642;50.830;12.082;2023-06-14T05:33:39;0.90;;;0.90;;
11171;SDS011;5642;50.830;12.082;2023-06-14T05:36:05;0.90;;;0.90;;
11171;SDS011;5642;50.830;12.082;2023-06-14T05:38:32;1.00;;;0.90;;
11171;SDS011;5642;50.830;12.082;2023-06-14T05:40:58;0.85;;;0.85;;
11171;SDS011;5642;50.830;12.082;2023-06-14T05:43:25;0.88;;;0.88;;
11171;SDS011;5642;50.830;12.082;2023-06-14T05:45:58;0.65;;;0.65;;
11171;SDS011;5642;50.830;12.082;2023-06-14T05:48:25;1.00;;;0.88;;
11171;SDS011;5642;50.830;12.082;2023-06-14T05:50:51;1.30;;;1.00;;
11171;SDS011;5642;50.830;12.082;2023-06-14T05:53:17;0.85;;;0.85;;
11171;SDS011;5642;50.830;12.082;2023-06-14T05:55:43;0.90;;;0.90;;
11171;SDS011;5642;50.830;12.082;2023-06-14T05:58:14;0.80;;;0.80;;
11171;SDS011;5642;50.830;12.082;2023-06-14T06:00:40;1.15;;;1.05;;
11171;SDS011;5642;50.830;12.082;2023-06-14T06:03:08;0.98;;;0.98;;
11171;SDS011;5642;50.830;12.082;2023-06-14T06:05:34;1.02;;;1.02;;
11171;SDS011;5642;50.830;12.082;2023-06-14T06:08:00;0.93;;;0.93;;
11171;SDS011;5642;50.830;12.082;2023-06-14T06:10:27;0.90;;;0.90;;
11171;SDS011;5642;50.830;12.082;2023-06-14T06:12:53;1.00;;;1.00;;
11171;SDS011;5642;50.830;12.082;2023-06-14T06:15:20;1.20;;;1.10;;
11171;SDS011;5642;50.830;12.082;2023-06-14T06:17:47;0.98;;;0.98;;
11171;SDS011;5642;50.830;12.082;2023-06-14T06:20:16;1.10;;;1.00;;
11171;SDS011;5642;50.830;12.082;2023-06-14T06:22:43;1.17;;;1.10;;
11171;SDS011;5642;50.830;12.082;2023-06-14T06:25:14;1.00;;;0.90;;
11171;SDS011;5642;50.830;12.082;2023-06-14T06:27:41;1.17;;;1.17;;
11171;SDS011;5642;50.830;12.082;2023-06-14T06:30:08;1.00;;;1.00;;
11171;SDS011;5642;50.830;12.082;2023-06-14T06:32:36;0.85;;;0.85;;
11171;SDS011;5642;50.830;12.082;2023-06-14T06:35:06;0.88;;;0.88;;
11171;SDS011;5642;50.830;12.082;2023-06-14T06:37:38;1.65;;;1.10;;
11171;SDS011;5642;50.830;12.082;2023-06-14T06:40:05;1.95;;;1.13;;
11171;SDS011;5642;50.830;12.082;2023-06-14T06:42:32;1.00;;;0.98;;
11171;SDS011;5642;50.830;12.082;2023-06-14T06:44:58;0.90;;;0.90;;
11171;SDS011;5642;50.830;12.082;2023-06-14T06:47:25;4.68;;;1.00;;
11171;SDS011;5642;50.830;12.082;2023-06-14T06:49:51;0.90;;;0.90;;
11171;SDS011;5642;50.830;12.082;2023-06-14T06:52:19;1.05;;;0.95;;
11171;SDS011;5642;50.830;12.082;2023-06-14T06:54:46;1.17;;;1.08;;
11171;SDS011;5642;50.830;12.082;2023-06-14T06:57:12;1.15;;;1.10;;
11171;SDS011;5642;50.830;12.082;2023-06-14T06:59:41;1.02;;;1.02;;
11171;SDS011;5642;50.830;12.082;2023-06-14T07:02:07;0.85;;;0.85;;
11171;SDS011;5642;50.830;12.082;2023-06-14T07:04:34;1.10;;;0.93;;
11171;SDS011;5642;50.830;12.082;2023-06-14T07:07:11;0.95;;;0.95;;
11171;SDS011;5642;50.830;12.082;2023-06-14T07:09:37;0.80;;;0.80;;
11171;SDS011;5642;50.830;12.082;2023-06-14T07:12:06;0.80;;;0.80;;
11171;SDS011;5642;50.830;12.082;2023-06-14T07:14:33;1.00;;;0.90;;
11171;SDS011;5642;50.830;12.082;2023-06-14T07:16:59;1.00;;;1.00;;
11171;SDS011;5642;50.830;12.082;2023-06-14T07:19:26;2.25;;;1.30;;
11171;SDS011;5642;50.830;12.082;2023-06-14T07:21:52;1.05;;;1.05;;
11171;SDS011;5642;50.830;12.082;2023-06-14T07:24:18;1.13;;;1.10;;
11171;SDS011;5642;50.830;12.082;2023-06-14T07:26:46;1.02;;;1.02;;
11171;SDS011;5642;50.830;12.082;2023-06-14T07:29:14;0.88;;;0.88;;
11171;SDS011;5642;50.830;12.082;2023-06-14T07:31:42;1.17;;;1.08;;
11171;SDS011;5642;50.830;12.082;2023-06-14T07:34:08;0.98;;;0.98;;
11171;SDS011;5642;50.830;12.082;2023-06-14T07:36:35;1.10;;;1.10;;
11171;SDS011;5642;50.830;12.082;2023-06-14T07:39:05;0.95;;;0.95;;
11171;SDS011;5642;50.830;12.082;2023-06-14T07:41:32;0.90;;;0.90;;
11171;SDS011;5642;50.830;12.082;2023-06-14T07:43:59;0.85;;;0.85;;
11171;SDS011;5642;50.830;12.082;2023-06-14T07:46:26;0.90;;;0.90;;
11171;SDS011;5642;50.830;12.082;2023-06-14T07:48:52;0.82;;;0.82;;
11171;SDS011;5642;50.830;12.082;2023-06-14T07:51:18;0.77;;;0.77;;
11171;SDS011;5642;50.830;12.082;2023-06-14T07:53:48;0.90;;;0.90;;
11171;SDS011;5642;50.830;12.082;2023-06-14T07:56:15;0.88;;;0.88;;
11171;SDS011;5642;50.830;12.082;2023-06-14T07:58:42;2.05;;;0.95;;
11171;SDS011;5642;50.830;12.082;2023-06-14T08:01:08;0.93;;;0.93;;
11171;SDS011;5642;50.830;12.082;2023-06-14T08:03:35;0.90;;;0.90;;
11171;SDS011;5642;50.830;12.082;2023-06-14T08:06:03;0.80;;;0.80;;
11171;SDS011;5642;50.830;12.082;2023-06-14T08:08:30;0.95;;;0.90;;
11171;SDS011;5642;50.830;12.082;2023-06-14T08:10:57;1.33;;;1.00;;
11171;SDS011;5642;50.830;12.082;2023-06-14T08:13:23;1.15;;;0.98;;
11171;SDS011;5642;50.830;12.082;2023-06-14T08:15:50;1.00;;;1.00;;
11171;SDS011;5642;50.830;12.082;2023-06-14T08:18:17;1.00;;;1.00;;
11171;SDS011;5642;50.830;12.082;2023-06-14T08:20:47;1.30;;;0.80;;
11171;SDS011;5642;50.830;12.082;2023-06-14T08:23:13;1.33;;;1.00;;
11171;SDS011;5642;50.830;12.082;2023-06-14T08:25:39;1.08;;;0.98;;
11171;SDS011;5642;50.830;12.082;2023-06-14T08:28:05;1.00;;;1.00;;
11171;SDS011;5642;50.830;12.082;2023-06-14T08:30:31;0.93;;;0.93;;
11171;SDS011;5642;50.830;12.082;2023-06-14T08:33:01;1.00;;;1.00;;
11171;SDS011;5642;50.830;12.082;2023-06-14T08:35:30;1.00;;;1.00;;
11171;SDS011;5642;50.830;12.082;2023-06-14T08:37:56;0.90;;;0.90;;
11171;SDS011;5642;50.830;12.082;2023-06-14T08:40:23;4.15;;;1.00;;
11171;SDS011;5642;50.830;12.082;2023-06-14T08:42:51;0.80;;;0.80;;
11171;SDS011;5642;50.830;12.082;2023-06-14T08:45:19;1.00;;;1.00;;
11171;SDS011;5642;50.830;12.082;2023-06-14T08:47:47;1.10;;;1.10;;
11171;SDS011;5642;50.830;12.082;2023-06-14T08:50:20;1.35;;;1.25;;
11171;SDS011;5642;50.830;12.082;2023-06-14T08:52:48;0.90;;;0.90;;
11171;SDS011;5642;50.830;12.082;2023-06-14T08:55:19;1.10;;;1.10;;
11171;SDS011;5642;50.830;12.082;2023-06-14T08:57:51;1.02;;;1.02;;
11171;SDS011;5642;50.830;12.082;2023-06-14T09:00:20;1.08;;;1.08;;
11171;SDS011;5642;50.830;12.082;2023-06-14T09:02:47;0.95;;;0.95;;
11171;SDS011;5642;50.830;12.082;2023-06-14T09:05:13;0.90;;;0.90;;
11171;SDS011;5642;50.830;12.082;2023-06-14T09:07:40;1.02;;;1.00;;
11171;SDS011;5642;50.830;12.082;2023-06-14T09:10:08;1.30;;;1.20;;
11171;SDS011;5642;50.830;12.082;2023-06-14T09:12:36;1.00;;;1.00;;
11171;SDS011;5642;50.830;12.082;2023-06-14T09:15:03;2.08;;;1.10;;
11171;SDS011;5642;50.830;12.082;2023-06-14T09:17:32;1.00;;;1.00;;
11171;SDS011;5642;50.830;12.082;2023-06-14T09:19:59;1.05;;;1.00;;
11171;SDS011;5642;50.830;12.082;2023-06-14T09:22:29;1.05;;;1.05;;
11171;SDS011;5642;50.830;12.082;2023-06-14T09:24:55;1.00;;;1.00;;
11171;SDS011;5642;50.830;12.082;2023-06-14T09:27:21;0.98;;;0.98;;
11171;SDS011;5642;50.830;12.082;2023-06-14T09:29:48;1.10;;;1.10;;
11171;SDS011;5642;50.830;12.082;2023-06-14T09:32:14;2.35;;;1.23;;
11171;SDS011;5642;50.830;12.082;2023-06-14T09:34:40;1.10;;;1.00;;
11171;SDS011;5642;50.830;12.082;2023-06-14T09:37:07;1.10;;;1.10;;
11171;SDS011;5642;50.830;12.082;2023-06-14T09:39:34;1.35;;;1.10;;
11171;SDS011;5642;50.830;12.082;2023-06-14T09:42:00;1.10;;;1.10;;
11171;SDS011;5642;50.830;12.082;2023-06-14T09:44:31;0.90;;;0.90;;
11171;SDS011;5642;50.830;12.082;2023-06-14T09:46:57;0.98;;;0.98;;
11171;SDS011;5642;50.830;12.082;2023-06-14T09:49:23;1.27;;;1.17;;
11171;SDS011;5642;50.830;12.082;2023-06-14T09:51:55;1.08;;;1.08;;
11171;SDS011;5642;50.830;12.082;2023-06-14T09:54:24;1.00;;;0.90;;
11171;SDS011;5642;50.830;12.082;2023-06-14T09:56:53;1.40;;;0.90;;
11171;SDS011;5642;50.830;12.082;2023-06-14T09:59:22;1.02;;;1.02;;
11171;SDS011;5642;50.830;12.082;2023-06-14T10:02:01;1.10;;;1.10;;
11171;SDS011;5642;50.830;12.082;2023-06-14T10:04:34;0.95;;;0.95;;
11171;SDS011;5642;50.830;12.082;2023-06-14T10:07:01;1.10;;;1.10;;
11171;SDS011;5642;50.830;12.082;2023-06-14T10:09:29;0.85;;;0.85;;
11171;SDS011;5642;50.830;12.082;2023-06-14T10:11:56;1.08;;;1.05;;
11171;SDS011;5642;50.830;12.082;2023-06-14T10:14:23;1.13;;;1.13;;
11171;SDS011;5642;50.830;12.082;2023-06-14T10:16:52;1.00;;;1.00;;
11171;SDS011;5642;50.830;12.082;2023-06-14T10:22:32;0.80;;;0.80;;
11171;SDS011;5642;50.830;12.082;2023-06-14T10:25:06;1.02;;;1.00;;
11171;SDS011;5642;50.830;12.082;2023-06-14T10:27:38;0.90;;;0.90;;
11171;SDS011;5642;50.830;12.082;2023-06-14T10:30:06;0.88;;;0.88;;
11171;SDS011;5642;50.830;12.082;2023-06-14T10:32:33;1.05;;;0.98;;
11171;SDS011;5642;50.830;12.082;2023-06-14T10:35:05;1.30;;;1.10;;
11171;SDS011;5642;50.830;12.082;2023-06-14T10:37:35;1.15;;;1.05;;
11171;SDS011;5642;50.830;12.082;2023-06-14T10:40:01;1.00;;;1.00;;
11171;SDS011;5642;50.830;12.082;2023-06-14T10:42:31;0.95;;;0.95;;
11171;SDS011;5642;50.830;12.082;2023-06-14T10:44:58;1.00;;;1.00;;
11171;SDS011;5642;50.830;12.082;2023-06-14T10:47:32;0.90;;;0.90;;
11171;SDS011;5642;50.830;12.082;2023-06-14T10:52:34;1.15;;;1.10;;
11171;SDS011;5642;50.830;12.082;2023-06-14T10:57:51;1.13;;;1.10;;
11171;SDS011;5642;50.830;12.082;2023-06-14T11:00:22;2.35;;;1.00;;
11171;SDS011;5642;50.830;12.082;2023-06-14T11:02:51;1.50;;;1.23;;
11171;SDS011;5642;50.830;12.082;2023-06-14T11:05:23;1.00;;;1.00;;
11171;SDS011;5642;50.830;12.082;2023-06-14T11:10:47;0.90;;;0.90;;
11171;SDS011;5642;50.830;12.082;2023-06-14T11:13:15;0.93;;;0.93;;
11171;SDS011;5642;50.830;12.082;2023-06-14T11:15:44;0.93;;;0.93;;
11171;SDS011;5642;50.830;12.082;2023-06-14T11:18:13;1.13;;;1.10;;
11171;SDS011;5642;50.830;12.082;2023-06-14T11:20:40;1.00;;;1.00;;
11171;SDS011;5642;50.830;12.082;2023-06-14T11:23:06;1.13;;;1.10;;
11171;SDS011;5642;50.830;12.082;2023-06-14T11:25:32;1.10;;;1.10;;
11171;SDS011;5642;50.830;12.082;2023-06-14T11:27:59;1.10;;;1.10;;
11171;SDS011;5642;50.830;12.082;2023-06-14T11:30:25;1.10;;;1.10;;
11171;SDS011;5642;50.830;12.082;2023-06-14T11:32:56;1.20;;;1.20;;
11171;SDS011;5642;50.830;12.082;2023-06-14T11:36:27;1.00;;;1.00;;
11171;SDS011;5642;50.830;12.082;2023-06-14T11:39:03;1.60;;;1.20;;
11171;SDS011;5642;50.830;12.082;2023-06-14T11:41:44;1.27;;;1.20;;
11171;SDS011;5642;50.830;12.082;2023-06-14T11:44:12;1.20;;;1.20;;
11171;SDS011;5642;50.830;12.082;2023-06-14T11:46:38;1.25;;;1.20;;
11171;SDS011;5642;50.830;12.082;2023-06-14T11:49:04;1.00;;;1.00;;
11171;SDS011;5642;50.830;12.082;2023-06-14T11:51:33;1.30;;;1.20;;
11171;SDS011;5642;50.830;12.082;2023-06-14T11:54:03;1.38;;;1.27;;
11171;SDS011;5642;50.830;12.082;2023-06-14T11:56:31;1.35;;;1.25;;
11171;SDS011;5642;50.830;12.082;2023-06-14T11:59:09;1.40;;;1.30;;
11171;SDS011;5642;50.830;12.082;2023-06-14T12:01:36;1.30;;;1.20;;
11171;SDS011;5642;50.830;12.082;2023-06-14T12:04:03;1.38;;;1.27;;
11171;SDS011;5642;50.830;12.082;2023-06-14T12:06:30;1.23;;;1.20;;
11171;SDS011;5642;50.830;12.082;2023-06-14T12:09:05;1.45;;;1.10;;
11171;SDS011;5642;50.830;12.082;2023-06-14T12:11:36;1.13;;;1.13;;
11171;SDS011;5642;50.830;12.082;2023-06-14T12:14:07;1.08;;;1.08;;
11171;SDS011;5642;50.830;12.082;2023-06-14T12:16:35;1.60;;;1.15;;
11171;SDS011;5642;50.830;12.082;2023-06-14T12:19:16;1.10;;;1.10;;
11171;SDS011;5642;50.830;12.082;2023-06-14T12:21:43;1.05;;;1.05;;
11171;SDS011;5642;50.830;12.082;2023-06-14T12:24:14;1.20;;;1.20;;
11171;SDS011;5642;50.830;12.082;2023-06-14T12:26:41;1.42;;;1.33;;
11171;SDS011;5642;50.830;12.082;2023-06-14T12:29:07;1.20;;;1.20;;
11171;SDS011;5642;50.830;12.082;2023-06-14T12:31:33;1.40;;;1.30;;
11171;SDS011;5642;50.830;12.082;2023-06-14T12:34:06;1.10;;;1.10;;
11171;SDS011;5642;50.830;12.082;2023-06-14T12:36:33;1.20;;;1.20;;
11171;SDS011;5642;50.830;12.082;2023-06-14T12:39:00;1.25;;;1.17;;
11171;SDS011;5642;50.830;12.082;2023-06-14T12:41:26;1.00;;;1.00;;
11171;SDS011;5642;50.830;12.082;2023-06-14T12:43:53;1.35;;;1.25;;
11171;SDS011;5642;50.830;12.082;2023-06-14T12:46:20;1.10;;;1.10;;
11171;SDS011;5642;50.830;12.082;2023-06-14T12:48:46;1.17;;;1.17;;
11171;SDS011;5642;50.830;12.082;2023-06-14T12:51:12;1.20;;;1.10;;
11171;SDS011;5642;50.830;12.082;2023-06-14T12:53:38;1.25;;;1.10;;
11171;SDS011;5642;50.830;12.082;2023-06-14T12:56:05;1.00;;;1.00;;
11171;SDS011;5642;50.830;12.082;2023-06-14T12:58:31;1.58;;;1.00;;
11171;SDS011;5642;50.830;12.082;2023-06-14T13:00:57;1.42;;;1.30;;
11171;SDS011;5642;50.830;12.082;2023-06-14T13:03:24;1.00;;;1.00;;
11171;SDS011;5642;50.830;12.082;2023-06-14T13:05:51;1.00;;;1.00;;
11171;SDS011;5642;50.830;12.082;2023-06-14T13:08:17;1.10;;;1.10;;
11171;SDS011;5642;50.830;12.082;2023-06-14T13:10:43;1.00;;;1.00;;
11171;SDS011;5642;50.830;12.082;2023-06-14T13:13:09;0.90;;;0.90;;
11171;SDS011;5642;50.830;12.082;2023-06-14T13:15:37;1.20;;;1.20;;
11171;SDS011;5642;50.830;12.082;2023-06-14T13:18:03;1.55;;;0.95;;
11171;SDS011;5642;50.830;12.082;2023-06-14T13:20:29;0.98;;;0.98;;
11171;SDS011;5642;50.830;12.082;2023-06-14T13:22:56;1.00;;;1.00;;
11171;SDS011;5642;50.830;12.082;2023-06-14T13:25:22;1.05;;;1.05;;
11171;SDS011;5642;50.830;12.082;2023-06-14T13:27:48;1.05;;;1.05;;
11171;SDS011;5642;50.830;12.082;2023-06-14T13:30:14;1.10;;;1.10;;
11171;SDS011;5642;50.830;12.082;2023-06-14T13:32:40;1.02;;;1.02;;
11171;SDS011;5642;50.830;12.082;2023-06-14T13:35:06;1.00;;;1.00;;
11171;SDS011;5642;50.830;12.082;2023-06-14T13:37:32;1.20;;;1.10;;
11171;SDS011;5642;50.830;12.082;2023-06-14T13:39:58;1.10;;;1.00;;
11171;SDS011;5642;50.830;12.082;2023-06-14T13:42:24;1.00;;;1.00;;
11171;SDS011;5642;50.830;12.082;2023-06-14T13:44:50;1.08;;;1.08;;
11171;SDS011;5642;50.830;12.082;2023-06-14T13:47:18;1.08;;;0.95;;
11171;SDS011;5642;50.830;12.082;2023-06-14T13:49:44;1.88;;;0.80;;
11171;SDS011;5642;50.830;12.082;2023-06-14T13:52:10;1.00;;;1.00;;
11171;SDS011;5642;50.830;12.082;2023-06-14T13:54:38;1.13;;;1.00;;
11171;SDS011;5642;50.830;12.082;2023-06-14T13:57:04;1.20;;;1.10;;
11171;SDS011;5642;50.830;12.082;2023-06-14T13:59:30;0.93;;;0.93;;
11171;SDS011;5642;50.830;12.082;2023-06-14T14:01:56;0.90;;;0.90;;
11171;SDS011;5642;50.830;12.082;2023-06-14T14:04:23;0.98;;;0.98;;
11171;SDS011;5642;50.830;12.082;2023-06-14T14:06:49;1.00;;;1.00;;
11171;SDS011;5642;50.830;12.082;2023-06-14T14:09:15;1.40;;;1.30;;
11171;SDS011;5642;50.830;12.082;2023-06-14T14:11:42;1.95;;;1.08;;
11171;SDS011;5642;50.830;12.082;2023-06-14T14:14:08;1.08;;;1.05;;
11171;SDS011;5642;50.830;12.082;2023-06-14T14:16:33;1.10;;;1.00;;
11171;SDS011;5642;50.830;12.082;2023-06-14T14:19:00;1.10;;;1.00;;
11171;SDS011;5642;50.830;12.082;2023-06-14T14:21:27;0.90;;;0.90;;
11171;SDS011;5642;50.830;12.082;2023-06-14T14:23:53;1.77;;;1.00;;
11171;SDS011;5642;50.830;12.082;2023-06-14T14:26:19;0.95;;;0.88;;
11171;SDS011;5642;50.830;12.082;2023-06-14T14:28:46;0.90;;;0.90;;
11171;SDS011;5642;50.830;12.082;2023-06-14T14:31:15;0.88;;;0.88;;
11171;SDS011;5642;50.830;12.082;2023-06-14T14:33:44;0.90;;;0.90;;
11171;SDS011;5642;50.830;12.082;2023-06-14T14:36:10;0.80;;;0.80;;
11171;SDS011;5642;50.830;12.082;2023-06-14T14:38:40;1.40;;;0.98;;
11171;SDS011;5642;50.830;12.082;2023-06-14T14:41:07;1.00;;;1.00;;
11171;SDS011;5642;50.830;12.082;2023-06-14T14:43:37;1.05;;;1.05;;
11171;SDS011;5642;50.830;12.082;2023-06-14T14:46:04;1.05;;;1.00;;
11171;SDS011;5642;50.830;12.082;2023-06-14T14:48:30;1.00;;;1.00;;
11171;SDS011;5642;50.830;12.082;2023-06-14T14:50:56;0.90;;;0.90;;
11171;SDS011;5642;50.830;12.082;2023-06-14T14:53:22;1.33;;;1.23;;
11171;SDS011;5642;50.830;12.082;2023-06-14T14:55:49;1.10;;;1.10;;
11171;SDS011;5642;50.830;12.082;2023-06-14T14:58:17;1.10;;;1.00;;
11171;SDS011;5642;50.830;12.082;2023-06-14T15:00:44;1.27;;;1.17;;
11171;SDS011;5642;50.830;12.082;2023-06-14T15:03:10;1.30;;;1.20;;
11171;SDS011;5642;50.830;12.082;2023-06-14T15:05:38;1.30;;;1.20;;
11171;SDS011;5642;50.830;12.082;2023-06-14T15:08:15;1.10;;;1.10;;
11171;SDS011;5642;50.830;12.082;2023-06-14T15:10:41;1.15;;;1.10;;